Time;durP1;ratioP1;P1;durP2;ratioP2;P2;SDS_P1;SDS_P2;PMS_P1;PMS_P2;Temp;Humidity;BMP_temperature;BMP_pressure;BME280_temperature;BME280_humidity;BME280_pressure;Samples;Min_cycle;Max_cycle;Signal;HPM_P1;HPM_P2
2022/06/25 00:01:12;;;;;;;15.02;11.73;;;17.90;99.90;;;;;;5016109;28;20033;-72
2022/06/25 00:03:39;;;;;;;13.45;11.82;;;17.90;99.90;;;;;;5029192;28;20049;-72
2022/06/25 00:06:06;;;;;;;12.13;9.43;;;17.90;99.90;;;;;;5035907;28;20055;-72
2022/06/25 00:08:33;;;;;;;12.40;10.65;;;17.80;99.90;;;;;;5022400;28;20059;-72
2022/06/25 00:10:58;;;;;;;12.23;10.13;;;17.80;99.90;;;;;;5038758;28;20061;-72
2022/06/25 00:13:24;;;;;;;11.02;9.07;;;17.80;99.90;;;;;;5028575;28;20104;-72
2022/06/25 00:15:50;;;;;;;12.98;9.50;;;17.60;99.90;;;;;;5032644;28;20048;-72
2022/06/25 00:18:16;;;;;;;11.93;9.82;;;17.70;99.90;;;;;;5024217;28;20756;-72
2022/06/25 00:20:44;;;;;;;11.52;10.07;;;17.70;99.90;;;;;;5035036;28;20111;-72
2022/06/25 00:23:10;;;;;;;11.65;10.38;;;17.70;99.90;;;;;;5035123;28;20497;-72
2022/06/25 00:25:36;;;;;;;12.98;11.05;;;17.70;99.90;;;;;;5036993;28;20480;-72
2022/06/25 00:28:02;;;;;;;12.77;10.13;;;17.70;99.90;;;;;;5031151;28;20049;-72
2022/06/25 00:30:28;;;;;;;14.88;10.88;;;17.70;99.90;;;;;;5026907;28;20388;-72
2022/06/25 00:32:54;;;;;;;12.40;10.40;;;17.70;99.90;;;;;;5041211;28;20045;-72
2022/06/25 00:35:20;;;;;;;10.68;9.57;;;17.60;99.90;;;;;;5031465;28;20053;-72
2022/06/25 00:37:46;;;;;;;12.07;10.10;;;17.60;99.90;;;;;;5026711;28;20049;-72
2022/06/25 00:40:12;;;;;;;13.18;11.02;;;17.60;99.90;;;;;;5031416;28;20111;-72
2022/06/25 00:42:49;;;;;;;12.30;10.27;;;17.60;99.90;;;;;;5022440;28;20076;-73
2022/06/25 00:45:14;;;;;;;13.40;11.35;;;17.60;99.90;;;;;;5026589;28;20048;-72
2022/06/25 00:47:40;;;;;;;12.85;11.40;;;17.60;99.90;;;;;;5019481;28;20068;-72
2022/06/25 00:50:08;;;;;;;13.20;10.77;;;17.50;99.90;;;;;;5026065;28;20052;-72
2022/06/25 00:52:34;;;;;;;10.57;9.35;;;17.50;99.90;;;;;;5027547;28;20107;-72
2022/06/25 00:55:11;;;;;;;13.70;10.85;;;17.50;99.90;;;;;;5033425;28;20049;-72
2022/06/25 00:57:42;;;;;;;10.63;9.52;;;17.50;99.90;;;;;;5026740;28;20148;-72
2022/06/25 01:00:11;;;;;;;10.10;9.10;;;17.50;99.90;;;;;;5031545;28;20130;-72
2022/06/25 01:02:37;;;;;;;13.48;9.13;;;17.50;99.90;;;;;;5024344;28;20068;-72
2022/06/25 01:05:11;;;;;;;10.15;9.15;;;17.50;99.90;;;;;;5029990;28;20489;-72
2022/06/25 01:07:38;;;;;;;12.73;10.25;;;17.50;99.90;;;;;;5038542;28;20049;-72
2022/06/25 01:10:06;;;;;;;9.23;8.27;;;17.40;99.90;;;;;;5036022;28;20044;-72
2022/06/25 01:12:32;;;;;;;9.15;6.90;;;17.40;99.90;;;;;;5025298;28;20199;-72
2022/06/25 01:15:07;;;;;;;13.15;9.43;;;17.40;99.90;;;;;;5032122;28;20097;-72
2022/06/25 01:17:36;;;;;;;10.50;7.78;;;17.40;99.90;;;;;;5031564;28;20056;-72
2022/06/25 01:20:04;;;;;;;10.00;8.25;;;17.40;99.90;;;;;;5041949;28;20107;-72
2022/06/25 01:22:33;;;;;;;10.02;8.40;;;17.40;99.90;;;;;;5030578;28;20104;-72
2022/06/25 01:24:59;;;;;;;8.90;8.07;;;17.40;99.90;;;;;;5030359;28;20130;-72
2022/06/25 01:27:25;;;;;;;10.95;9.63;;;17.40;99.90;;;;;;5023500;28;20053;-71
2022/06/25 01:29:51;;;;;;;10.43;8.23;;;17.40;99.90;;;;;;5032535;28;20051;-72
2022/06/25 01:32:17;;;;;;;9.95;7.63;;;17.30;99.90;;;;;;5034542;28;20842;-72
2022/06/25 01:34:42;;;;;;;9.88;8.65;;;17.30;99.90;;;;;;5038094;28;20079;-73
2022/06/25 01:37:08;;;;;;;12.82;8.57;;;17.30;99.90;;;;;;5029504;28;20050;-72
2022/06/25 01:39:34;;;;;;;8.90;7.57;;;17.30;99.90;;;;;;5027923;28;20123;-72
2022/06/25 01:42:00;;;;;;;12.93;9.90;;;17.30;99.90;;;;;;5033816;28;20053;-72
2022/06/25 01:44:28;;;;;;;11.23;8.90;;;17.30;99.90;;;;;;5038705;28;20762;-72
2022/06/25 01:46:57;;;;;;;11.50;9.05;;;17.30;99.90;;;;;;5025156;28;20046;-72
2022/06/25 01:49:23;;;;;;;11.50;8.32;;;17.30;99.90;;;;;;5035080;28;20045;-72
2022/06/25 01:51:49;;;;;;;11.55;10.23;;;17.30;99.90;;;;;;5022420;28;20847;-72
2022/06/25 01:54:15;;;;;;;8.50;7.72;;;17.30;99.90;;;;;;5028997;28;20054;-72
2022/06/25 01:56:41;;;;;;;8.80;7.93;;;17.30;99.90;;;;;;5026262;28;20120;-72
2022/06/25 01:59:07;;;;;;;11.48;8.48;;;17.30;99.90;;;;;;5027287;28;20671;-72
2022/06/25 02:01:32;;;;;;;11.20;9.57;;;17.30;99.90;;;;;;5014959;28;20041;-72
2022/06/25 02:03:58;;;;;;;9.02;8.10;;;17.20;99.90;;;;;;5025504;28;20052;-72
2022/06/25 02:06:24;;;;;;;10.35;8.68;;;17.30;99.90;;;;;;5030770;28;20552;-72
2022/06/25 02:08:50;;;;;;;9.40;8.23;;;17.20;99.90;;;;;;5028251;28;20047;-72
2022/06/25 02:11:15;;;;;;;9.60;8.70;;;17.20;99.90;;;;;;5024467;28;20059;-72
2022/06/25 02:13:41;;;;;;;9.63;8.65;;;17.20;99.90;;;;;;5029172;28;20128;-71
2022/06/25 02:16:07;;;;;;;11.35;8.93;;;17.20;99.90;;;;;;5040913;28;20080;-70
2022/06/25 02:18:33;;;;;;;10.07;9.05;;;17.20;99.90;;;;;;5024101;28;20464;-70
2022/06/25 02:20:58;;;;;;;9.80;8.73;;;17.20;99.90;;;;;;5030125;28;20842;-72
2022/06/25 02:23:24;;;;;;;8.80;7.93;;;17.10;99.90;;;;;;5028981;28;20591;-72
2022/06/25 02:25:50;;;;;;;9.20;8.35;;;17.10;99.90;;;;;;5021822;28;20055;-72
2022/06/25 02:28:17;;;;;;;11.93;9.18;;;17.10;99.90;;;;;;5024786;28;20044;-72
2022/06/25 02:30:44;;;;;;;9.82;7.53;;;17.00;99.90;;;;;;5023495;28;20056;-72
2022/06/25 02:33:12;;;;;;;9.13;8.23;;;17.10;99.90;;;;;;5022460;28;21021;-72
2022/06/25 02:35:42;;;;;;;13.70;9.90;;;17.00;99.90;;;;;;5023630;28;20053;-72
2022/06/25 02:38:09;;;;;;;9.77;8.77;;;17.00;99.90;;;;;;5023862;28;20479;-72
2022/06/25 02:40:35;;;;;;;8.70;7.80;;;16.90;99.90;;;;;;5022669;28;20044;-72
2022/06/25 02:43:01;;;;;;;9.45;8.40;;;16.90;99.90;;;;;;5016510;28;20080;-72
2022/06/25 02:45:28;;;;;;;7.88;6.70;;;16.90;99.90;;;;;;5029684;28;20175;-72
2022/06/25 02:47:54;;;;;;;10.07;7.55;;;16.90;99.90;;;;;;5025894;28;20160;-72
2022/06/25 02:50:20;;;;;;;9.15;7.35;;;16.90;99.90;;;;;;5024226;28;20037;-72
2022/06/25 02:52:45;;;;;;;9.27;8.15;;;16.90;99.90;;;;;;5018913;28;20124;-72
2022/06/25 02:55:11;;;;;;;9.43;7.75;;;16.80;99.90;;;;;;5027026;28;20056;-72
2022/06/25 03:00:21;;;;;;;10.25;8.27;;;16.80;99.90;;;;;;5020532;28;20052;-72
2022/06/25 03:02:47;;;;;;;10.88;8.32;;;16.90;99.90;;;;;;5029654;28;20049;-72
2022/06/25 03:05:13;;;;;;;12.13;9.38;;;16.90;99.90;;;;;;5036501;28;20045;-72
2022/06/25 03:07:39;;;;;;;8.75;7.85;;;16.80;99.90;;;;;;5019987;28;20792;-72
2022/06/25 03:10:05;;;;;;;8.02;6.80;;;16.80;99.90;;;;;;5019780;28;20045;-72
2022/06/25 03:12:31;;;;;;;12.50;9.98;;;16.80;99.90;;;;;;5025652;28;20264;-72
2022/06/25 03:14:57;;;;;;;9.18;8.25;;;16.80;99.90;;;;;;5028003;28;20067;-72
2022/06/25 03:17:22;;;;;;;7.55;6.40;;;16.80;99.90;;;;;;5018794;28;20053;-72
2022/06/25 03:19:48;;;;;;;9.00;7.70;;;16.80;99.90;;;;;;5022064;28;20049;-72
2022/06/25 03:22:14;;;;;;;8.20;7.40;;;16.80;99.90;;;;;;5023999;28;20774;-72
2022/06/25 03:24:39;;;;;;;7.95;7.13;;;16.70;99.90;;;;;;5030794;28;20150;-72
2022/06/25 03:27:05;;;;;;;8.05;6.97;;;16.70;99.90;;;;;;5017820;28;20121;-72
2022/06/25 03:29:31;;;;;;;10.02;8.90;;;16.70;99.90;;;;;;5017763;28;20110;-72
2022/06/25 03:31:57;;;;;;;9.27;8.32;;;16.70;99.90;;;;;;5025402;28;20144;-72
2022/06/25 03:34:22;;;;;;;10.25;8.45;;;16.70;99.90;;;;;;5022773;28;20053;-72
2022/06/25 03:36:48;;;;;;;12.23;8.90;;;16.70;99.90;;;;;;5042839;28;20206;-72
2022/06/25 03:39:14;;;;;;;9.85;8.90;;;16.70;99.90;;;;;;5019889;28;20095;-72
2022/06/25 03:41:39;;;;;;;9.43;8.52;;;16.70;99.90;;;;;;5023927;28;20125;-72
2022/06/25 03:44:07;;;;;;;10.43;9.15;;;16.70;99.90;;;;;;5021087;28;20072;-72
2022/06/25 03:46:34;;;;;;;11.80;9.20;;;15.80;99.90;;;;;;5024191;28;20147;-72
2022/06/25 03:49:01;;;;;;;8.93;8.02;;;16.80;99.90;;;;;;5024588;28;20057;-72
2022/06/25 03:51:27;;;;;;;13.63;10.18;;;16.80;99.90;;;;;;5026030;28;20045;-72
2022/06/25 03:53:53;;;;;;;11.35;10.23;;;16.80;99.90;;;;;;5023586;28;20044;-72
2022/06/25 03:56:19;;;;;;;11.35;9.95;;;16.90;99.90;;;;;;5024217;28;20703;-72
2022/06/25 03:58:45;;;;;;;11.35;10.02;;;16.90;99.90;;;;;;5029894;28;20045;-72
2022/06/25 04:01:11;;;;;;;13.05;10.20;;;16.90;99.90;;;;;;5019491;28;20789;-72
2022/06/25 04:03:36;;;;;;;9.82;8.80;;;17.00;99.90;;;;;;5030332;28;20034;-72
2022/06/25 04:06:02;;;;;;;13.25;10.32;;;17.00;99.90;;;;;;5028991;28;20857;-72
2022/06/25 04:08:28;;;;;;;10.93;9.48;;;17.00;99.90;;;;;;5030501;28;20059;-72
2022/06/25 04:10:54;;;;;;;11.05;9.52;;;17.00;99.90;;;;;;5022443;28;20092;-72
2022/06/25 04:13:19;;;;;;;15.40;10.00;;;17.10;99.90;;;;;;5030250;28;20095;-72
2022/06/25 04:15:45;;;;;;;14.85;11.02;;;17.10;99.90;;;;;;5030803;28;20119;-72
2022/06/25 04:18:11;;;;;;;11.38;10.10;;;17.10;99.90;;;;;;5022452;28;20444;-72
2022/06/25 04:20:37;;;;;;;12.02;9.50;;;17.10;99.90;;;;;;5032925;28;20049;-72
2022/06/25 04:23:02;;;;;;;10.73;9.32;;;17.20;99.90;;;;;;5028635;28;20048;-72
2022/06/25 04:25:28;;;;;;;12.70;8.65;;;17.20;99.90;;;;;;5011091;28;20053;-72
2022/06/25 04:30:38;;;;;;;15.52;10.27;;;17.20;99.90;;;;;;5026347;28;20052;-72
2022/06/25 04:33:04;;;;;;;12.35;10.20;;;17.20;99.90;;;;;;5033420;28;20045;-72
2022/06/25 04:35:30;;;;;;;11.02;9.90;;;17.30;99.90;;;;;;5025279;28;20041;-72
2022/06/25 04:37:55;;;;;;;13.57;10.32;;;17.30;99.90;;;;;;5025719;28;20107;-72
2022/06/25 04:40:21;;;;;;;11.70;8.80;;;17.30;99.90;;;;;;5027262;28;20830;-72
2022/06/25 04:42:47;;;;;;;11.52;9.63;;;17.40;99.90;;;;;;5029389;28;20110;-72
2022/06/25 04:45:13;;;;;;;11.95;10.85;;;17.40;99.90;;;;;;5029127;28;20072;-72
2022/06/25 04:47:38;;;;;;;11.73;9.80;;;17.40;99.90;;;;;;5028264;28;20497;-71
2022/06/25 04:50:08;;;;;;;11.60;9.63;;;17.40;99.90;;;;;;5024253;28;20045;-71
2022/06/25 04:52:34;;;;;;;11.27;9.82;;;17.50;99.90;;;;;;5020082;28;20500;-72
2022/06/25 04:54:59;;;;;;;12.43;9.95;;;17.50;99.90;;;;;;5027713;28;21618;-72
2022/06/25 04:57:25;;;;;;;10.88;8.95;;;17.60;99.90;;;;;;5024072;28;20045;-72
2022/06/25 04:59:51;;;;;;;9.73;8.43;;;17.60;99.90;;;;;;5025268;28;20041;-72
2022/06/25 05:02:17;;;;;;;9.35;8.38;;;17.60;99.90;;;;;;5025381;28;20551;-72
2022/06/25 05:04:42;;;;;;;11.02;9.40;;;17.70;99.90;;;;;;5036471;28;20037;-72
2022/06/25 05:07:08;;;;;;;11.55;8.52;;;17.70;99.90;;;;;;5019978;28;20498;-71
2022/06/25 05:09:34;;;;;;;11.07;9.35;;;17.70;99.90;;;;;;5025229;28;20049;-71
2022/06/25 05:12:00;;;;;;;11.32;8.45;;;17.80;99.90;;;;;;5027125;28;20385;-71
2022/06/25 05:14:25;;;;;;;9.95;8.93;;;17.90;99.90;;;;;;5029546;28;20057;-71
2022/06/25 05:16:51;;;;;;;9.77;8.38;;;17.90;99.90;;;;;;5029532;28;20040;-71
2022/06/25 05:19:17;;;;;;;9.93;8.35;;;17.90;99.90;;;;;;5033026;28;20233;-71
2022/06/25 05:21:43;;;;;;;10.43;9.05;;;18.00;99.90;;;;;;5020687;28;20057;-71
2022/06/25 05:24:08;;;;;;;9.45;8.32;;;18.00;99.90;;;;;;5027579;28;20482;-71
2022/06/25 05:26:34;;;;;;;9.30;7.68;;;18.10;99.90;;;;;;5028415;28;20078;-71
2022/06/25 05:29:00;;;;;;;9.90;8.30;;;18.10;99.90;;;;;;5027192;28;20188;-71
2022/06/25 05:31:25;;;;;;;9.70;7.80;;;18.30;99.90;;;;;;5027393;28;20033;-71
2022/06/25 05:33:51;;;;;;;11.05;8.20;;;18.30;99.90;;;;;;5032225;28;20353;-71
2022/06/25 05:36:17;;;;;;;10.13;7.80;;;18.40;99.90;;;;;;5033107;28;20091;-71
2022/06/25 05:38:43;;;;;;;8.75;7.13;;;18.40;99.90;;;;;;5029334;28;20049;-71
2022/06/25 05:41:09;;;;;;;9.48;8.18;;;18.50;99.90;;;;;;5028034;28;20139;-71
2022/06/25 05:43:36;;;;;;;8.45;7.32;;;18.60;99.90;;;;;;5027324;28;20036;-71
2022/06/25 05:46:02;;;;;;;9.43;7.97;;;18.70;99.90;;;;;;5027405;28;21240;-71
2022/06/25 05:48:28;;;;;;;8.70;6.95;;;18.80;99.90;;;;;;5026056;28;20057;-71
2022/06/25 05:50:53;;;;;;;8.50;7.38;;;18.90;99.90;;;;;;5025389;28;20088;-71
2022/06/25 05:53:19;;;;;;;7.70;6.32;;;18.90;99.90;;;;;;5027698;28;20100;-71
2022/06/25 05:55:45;;;;;;;8.73;7.03;;;19.00;99.90;;;;;;5024161;28;20048;-71
2022/06/25 05:58:11;;;;;;;8.23;6.55;;;19.10;99.90;;;;;;5030539;28;20044;-70
2022/06/25 06:00:36;;;;;;;7.07;6.38;;;19.20;99.90;;;;;;5025750;28;20072;-71
2022/06/25 06:03:02;;;;;;;7.95;7.05;;;18.70;99.90;;;;;;5027733;28;20950;-72
2022/06/25 06:05:27;;;;;;;9.20;8.20;;;19.50;99.90;;;;;;5021629;28;20151;-71
2022/06/25 06:07:53;;;;;;;7.75;6.63;;;19.50;99.90;;;;;;5025911;28;20127;-71
2022/06/25 06:10:19;;;;;;;13.32;6.82;;;19.60;99.90;;;;;;5021655;28;20543;-71
2022/06/25 06:12:45;;;;;;;8.20;6.63;;;19.80;99.90;;;;;;5022624;28;20049;-71
2022/06/25 06:15:11;;;;;;;7.05;5.68;;;20.00;99.90;;;;;;5027227;28;20045;-72
2022/06/25 06:17:38;;;;;;;8.45;5.68;;;20.20;99.90;;;;;;5039541;28;20048;-71
2022/06/25 06:20:04;;;;;;;7.63;5.65;;;20.60;99.90;;;;;;5020260;28;20129;-72
2022/06/25 06:22:30;;;;;;;6.28;5.45;;;21.60;99.90;;;;;;5025147;28;20133;-72
2022/06/25 06:24:55;;;;;;;6.85;5.93;;;22.90;99.90;;;;;;5022302;28;20064;-72
2022/06/25 06:27:21;;;;;;;5.93;5.22;;;23.80;99.90;;;;;;5024219;28;20136;-72
2022/06/25 06:29:47;;;;;;;6.53;5.32;;;24.60;99.90;;;;;;5026061;28;20045;-73
2022/06/25 06:32:13;;;;;;;5.88;5.30;;;24.90;99.90;;;;;;5025772;28;20053;-72
2022/06/25 06:34:39;;;;;;;7.72;4.72;;;25.30;99.90;;;;;;5021183;28;20048;-73
2022/06/25 06:37:04;;;;;;;4.20;3.90;;;25.80;99.90;;;;;;5022255;28;20049;-73
2022/06/25 06:39:30;;;;;;;4.40;4.00;;;26.00;99.90;;;;;;5018719;28;20051;-73
2022/06/25 06:41:56;;;;;;;6.18;4.90;;;26.10;99.90;;;;;;5026812;28;20088;-72
2022/06/25 06:44:22;;;;;;;5.28;4.60;;;26.30;99.90;;;;;;5018017;28;20827;-72
2022/06/25 06:46:47;;;;;;;5.57;3.80;;;26.50;99.90;;;;;;5024416;28;20087;-72
2022/06/25 06:49:13;;;;;;;4.43;3.78;;;26.40;99.90;;;;;;5022171;28;20060;-72
2022/06/25 06:51:39;;;;;;;5.55;4.03;;;26.70;99.90;;;;;;5022093;28;20051;-73
2022/06/25 06:54:05;;;;;;;4.47;4.05;;;27.00;99.90;;;;;;5023067;28;20041;-72
2022/06/25 06:56:30;;;;;;;5.00;4.15;;;27.60;99.90;;;;;;5030382;28;20591;-73
2022/06/25 06:58:57;;;;;;;5.38;3.40;;;28.10;99.90;;;;;;5027257;28;20069;-72
2022/06/25 07:01:22;;;;;;;4.53;4.05;;;28.10;99.90;;;;;;5012491;28;20049;-73
2022/06/25 07:03:48;;;;;;;5.57;4.03;;;28.10;99.90;;;;;;5024678;28;20047;-72
2022/06/25 07:06:14;;;;;;;4.63;3.65;;;28.40;99.90;;;;;;5016153;28;20174;-73
2022/06/25 07:08:40;;;;;;;5.10;3.50;;;28.80;99.90;;;;;;5025299;28;20148;-74
2022/06/25 07:13:51;;;;;;;5.78;3.78;;;29.60;99.90;;;;;;5013193;28;20056;-73
2022/06/25 07:16:17;;;;;;;5.93;3.22;;;30.20;99.90;;;;;;5032923;28;20059;-73
2022/06/25 07:18:43;;;;;;;6.82;3.10;;;30.10;99.40;;;;;;5012321;28;20465;-73
2022/06/25 07:21:08;;;;;;;3.85;2.88;;;30.30;99.10;;;;;;5019203;28;20163;-73
2022/06/25 07:23:34;;;;;;;4.68;2.80;;;30.40;98.10;;;;;;5022592;28;20128;-73
2022/06/25 07:26:00;;;;;;;3.53;2.47;;;30.50;97.60;;;;;;5025462;28;20086;-73
2022/06/25 07:28:25;;;;;;;3.60;2.88;;;30.20;97.20;;;;;;5028909;28;20152;-73
2022/06/25 07:30:51;;;;;;;4.68;2.83;;;30.30;96.70;;;;;;5021057;28;20144;-73
2022/06/25 07:33:17;;;;;;;4.15;2.50;;;30.50;96.50;;;;;;5031052;28;20537;-76
2022/06/25 07:35:43;;;;;;;2.40;2.15;;;30.20;96.00;;;;;;5029166;28;20392;-75
2022/06/25 07:38:09;;;;;;;3.28;2.50;;;30.20;95.40;;;;;;5035609;28;20152;-75
2022/06/25 07:40:34;;;;;;;2.95;2.13;;;30.10;95.10;;;;;;5044779;28;20045;-75
2022/06/25 07:43:01;;;;;;;3.78;2.42;;;30.20;95.20;;;;;;5025139;28;20473;-75
2022/06/25 07:45:27;;;;;;;2.47;2.05;;;30.30;94.60;;;;;;5029684;28;20098;-76
2022/06/25 07:47:53;;;;;;;2.40;1.90;;;30.50;93.50;;;;;;5030456;28;20045;-75
2022/06/25 07:53:04;;;;;;;2.95;2.25;;;31.10;93.60;;;;;;5027070;28;20092;-76
2022/06/25 07:55:29;;;;;;;4.15;1.80;;;31.30;93.20;;;;;;5032632;28;20132;-76
2022/06/25 07:57:55;;;;;;;2.22;1.75;;;31.90;92.70;;;;;;5028139;28;20137;-75
2022/06/25 08:00:22;;;;;;;3.92;2.00;;;31.90;92.30;;;;;;5032924;28;21744;-76
2022/06/25 08:02:48;;;;;;;5.38;2.10;;;31.70;91.50;;;;;;5022013;28;20124;-76
2022/06/25 08:10:34;;;;;;;5.00;2.38;;;30.70;91.90;;;;;;4992053;23;20150;-77
2022/06/25 08:13:00;;;;;;;2.42;1.77;;;31.20;91.70;;;;;;4888647;29;20064;-77
2022/06/25 08:15:26;;;;;;;4.55;1.80;;;31.50;91.20;;;;;;4894515;29;20059;-77
2022/06/25 08:17:52;;;;;;;2.83;1.80;;;31.80;91.00;;;;;;4887561;29;20605;-75
2022/06/25 08:20:18;;;;;;;3.50;2.30;;;31.90;90.40;;;;;;4899886;29;20067;-77
2022/06/25 08:22:43;;;;;;;2.70;1.90;;;32.10;90.00;;;;;;4904997;29;20059;-75
2022/06/25 08:25:09;;;;;;;2.55;1.70;;;32.10;89.90;;;;;;4901569;29;20082;-77
2022/06/25 08:27:51;;;;;;;4.00;2.10;;;31.50;89.80;;;;;;4899284;29;20048;-75
2022/06/25 08:30:23;;;;;;;4.00;2.28;;;31.50;87.10;;;;;;4897891;29;20290;-78
2022/06/25 08:32:49;;;;;;;2.90;1.80;;;31.40;86.20;;;;;;4897441;29;20519;-77
2022/06/25 08:35:15;;;;;;;2.88;1.73;;;30.80;90.00;;;;;;4900150;29;20044;-78
2022/06/25 08:37:48;;;;;;;4.07;1.80;;;30.70;90.40;;;;;;4900903;29;20151;-75
2022/06/25 08:40:16;;;;;;;2.47;1.95;;;30.70;88.90;;;;;;4896267;29;20060;-77
2022/06/25 08:42:43;;;;;;;3.53;1.60;;;30.80;88.80;;;;;;4903168;29;20052;-75
2022/06/25 08:45:09;;;;;;;2.28;1.83;;;31.00;89.30;;;;;;4900978;29;20122;-76
2022/06/25 08:47:43;;;;;;;3.13;1.73;;;30.60;87.30;;;;;;4894881;29;20048;-80
2022/06/25 08:50:10;;;;;;;2.65;1.70;;;30.60;86.70;;;;;;4887916;29;20045;-78
2022/06/25 08:52:37;;;;;;;3.95;2.15;;;30.20;88.50;;;;;;4897519;29;20050;-79
2022/06/25 08:55:03;;;;;;;1.63;1.52;;;29.80;87.80;;;;;;4899637;29;20398;-77
2022/06/25 08:57:30;;;;;;;4.05;1.48;;;29.40;88.80;;;;;;4898668;29;20299;-78
2022/06/25 08:59:56;;;;;;;4.07;2.03;;;28.80;88.20;;;;;;4896756;29;20044;-78
2022/06/25 09:02:22;;;;;;;2.75;1.85;;;28.20;90.00;;;;;;4900995;29;20052;-76
2022/06/25 09:04:47;;;;;;;2.25;1.73;;;27.90;90.40;;;;;;4895486;29;20602;-77
2022/06/25 09:07:17;;;;;;;2.35;1.63;;;27.60;90.30;;;;;;4891812;29;20797;-75
2022/06/25 09:09:49;;;;;;;3.22;1.63;;;27.40;90.50;;;;;;4891490;29;20071;-77
2022/06/25 09:12:16;;;;;;;3.85;1.60;;;27.20;90.60;;;;;;4897382;29;20064;-76
2022/06/25 09:14:42;;;;;;;4.07;1.83;;;26.80;91.10;;;;;;4990699;23;20059;-74
2022/06/25 09:17:14;;;;;;;2.17;1.63;;;26.50;91.40;;;;;;4929705;28;20859;-75
2022/06/25 09:19:44;;;;;;;2.90;1.55;;;26.40;91.50;;;;;;4935262;29;20490;-76
2022/06/25 09:22:20;;;;;;;3.10;1.88;;;26.40;91.90;;;;;;4933025;28;20039;-75
2022/06/25 09:24:51;;;;;;;2.83;1.70;;;26.30;91.30;;;;;;4936957;28;20059;-76
2022/06/25 09:27:20;;;;;;;1.88;1.52;;;26.70;92.20;;;;;;4936993;29;20055;-76
2022/06/25 09:29:48;;;;;;;2.13;1.35;;;27.10;91.60;;;;;;4930040;28;20070;-75
2022/06/25 09:32:14;;;;;;;3.70;1.65;;;27.30;91.40;;;;;;4930508;28;20048;-75
2022/06/25 09:34:40;;;;;;;3.78;1.52;;;27.80;91.00;;;;;;4936541;29;20892;-76
2022/06/25 09:37:19;;;;;;;2.45;1.70;;;28.00;91.50;;;;;;4935015;28;20058;-75
2022/06/25 09:39:46;;;;;;;2.05;1.33;;;27.90;89.60;;;;;;4935179;29;20129;-75
2022/06/25 09:42:20;;;;;;;2.50;1.58;;;28.20;91.30;;;;;;4938141;28;20817;-75
2022/06/25 09:44:47;;;;;;;1.52;1.42;;;28.60;91.50;;;;;;4938629;29;20498;-75
2022/06/25 09:47:13;;;;;;;2.90;1.55;;;28.80;90.70;;;;;;4938899;28;20562;-75
2022/06/25 09:49:40;;;;;;;1.35;1.25;;;28.60;90.40;;;;;;4932311;28;20130;-75
2022/06/25 09:52:06;;;;;;;1.90;1.00;;;28.70;90.50;;;;;;4939554;28;20057;-75
2022/06/25 09:54:32;;;;;;;2.95;1.35;;;28.70;90.50;;;;;;4939042;28;20047;-75
2022/06/25 09:56:59;;;;;;;2.55;1.20;;;28.60;90.40;;;;;;4938881;28;20043;-75
2022/06/25 09:59:30;;;;;;;1.77;1.52;;;28.80;90.50;;;;;;4939410;28;20058;-75
2022/06/25 10:01:55;;;;;;;1.30;1.00;;;28.90;90.30;;;;;;4936739;28;20105;-75
2022/06/25 10:04:22;;;;;;;2.22;1.63;;;29.20;90.90;;;;;;4935713;28;20778;-74
2022/06/25 10:06:51;;;;;;;2.45;1.75;;;29.50;90.80;;;;;;4934295;28;20119;-73
2022/06/25 10:09:18;;;;;;;4.60;1.73;;;29.40;87.70;;;;;;4933609;28;20743;-74
2022/06/25 10:11:44;;;;;;;1.92;1.83;;;29.30;90.20;;;;;;4939384;28;20059;-74
2022/06/25 10:14:12;;;;;;;1.27;1.17;;;29.20;89.90;;;;;;4936045;28;20151;-74
2022/06/25 10:16:38;;;;;;;2.03;1.60;;;29.20;89.80;;;;;;4937436;28;20082;-74
2022/06/25 10:19:05;;;;;;;1.67;1.58;;;29.10;90.90;;;;;;4929698;28;20058;-74
2022/06/25 10:21:31;;;;;;;1.40;1.30;;;29.00;90.50;;;;;;4926123;29;20043;-73
2022/06/25 10:24:01;;;;;;;2.45;1.42;;;28.80;90.70;;;;;;4937125;28;20082;-74
2022/06/25 10:26:28;;;;;;;1.67;1.38;;;29.20;90.50;;;;;;4919567;29;20058;-74
2022/06/25 10:28:54;;;;;;;2.28;1.70;;;29.50;90.30;;;;;;4931858;29;20046;-74
2022/06/25 10:31:20;;;;;;;5.10;1.60;;;29.60;90.10;;;;;;4936840;28;20093;-74
2022/06/25 10:34:02;;;;;;;2.00;1.50;;;29.50;89.80;;;;;;4936335;28;20055;-73
2022/06/25 10:36:52;;;;;;;2.63;1.60;;;29.30;85.90;;;;;;4937944;29;20054;-73
2022/06/25 10:39:26;;;;;;;2.47;1.42;;;29.00;87.30;;;;;;4935048;28;20059;-74
2022/06/25 10:45:15;;;;;;;3.55;1.30;;;29.20;89.70;;;;;;4937468;28;20070;-74
2022/06/25 10:47:58;;;;;;;1.63;1.13;;;29.30;89.20;;;;;;4935263;28;20047;-74
2022/06/25 10:50:25;;;;;;;2.15;1.25;;;29.60;86.60;;;;;;4935820;28;20047;-74
2022/06/25 10:53:03;;;;;;;3.67;1.35;;;29.60;87.90;;;;;;4937241;28;20062;-74
2022/06/25 10:55:59;;;;;;;2.28;1.52;;;29.40;89.70;;;;;;4924495;28;20138;-74
2022/06/25 10:58:27;;;;;;;5.13;1.50;;;29.00;88.30;;;;;;4934497;28;20063;-74
2022/06/25 11:01:03;;;;;;;4.68;1.10;;;28.80;88.80;;;;;;4920566;29;20047;-74
2022/06/25 11:03:30;;;;;;;2.95;1.40;;;28.80;87.40;;;;;;4932546;29;20055;-74
2022/06/25 11:06:18;;;;;;;1.85;1.50;;;28.60;88.00;;;;;;4931237;28;20138;-74
2022/06/25 11:08:44;;;;;;;1.67;1.52;;;28.40;87.20;;;;;;4923542;28;20047;-73
2022/06/25 11:11:11;;;;;;;2.90;1.48;;;28.60;89.30;;;;;;4930618;29;20094;-75
2022/06/25 11:13:43;;;;;;;2.67;1.45;;;28.70;88.50;;;;;;4936305;28;20490;-74
2022/06/25 11:16:16;;;;;;;1.33;1.05;;;28.50;90.50;;;;;;4936480;28;20051;-74
2022/06/25 11:18:50;;;;;;;3.95;1.83;;;28.40;88.60;;;;;;4935557;28;20059;-74
2022/06/25 11:21:37;;;;;;;1.83;1.45;;;28.30;88.00;;;;;;4933076;28;20055;-74
2022/06/25 11:24:10;;;;;;;2.08;1.80;;;28.30;90.10;;;;;;4932902;29;20066;-75
2022/06/25 11:29:26;;;;;;;3.15;1.60;;;28.10;85.50;;;;;;4932857;29;20961;-74
2022/06/25 11:31:53;;;;;;;5.93;1.87;;;27.90;87.80;;;;;;4934787;28;20047;-75
2022/06/25 11:34:20;;;;;;;2.47;1.40;;;28.00;87.90;;;;;;4928516;28;20055;-75
2022/06/25 11:37:17;;;;;;;4.32;1.42;;;28.00;87.60;;;;;;4926723;28;20055;-74
2022/06/25 11:39:45;;;;;;;2.55;1.55;;;27.90;88.10;;;;;;4929478;28;20420;-74
2022/06/25 11:42:11;;;;;;;4.20;1.48;;;27.70;87.80;;;;;;4928396;28;20089;-74
2022/06/25 11:44:46;;;;;;;2.10;1.42;;;27.60;89.00;;;;;;4925411;29;20079;-74
2022/06/25 11:47:14;;;;;;;4.25;1.60;;;27.60;90.70;;;;;;4930186;29;20051;-74
2022/06/25 11:49:41;;;;;;;1.77;1.42;;;27.60;90.40;;;;;;4930922;28;20543;-74
2022/06/25 11:52:07;;;;;;;3.58;1.52;;;27.80;90.80;;;;;;4930984;29;20048;-74
2022/06/25 11:54:36;;;;;;;2.45;1.48;;;28.00;90.60;;;;;;4928850;28;20043;-74
2022/06/25 11:57:07;;;;;;;3.00;1.45;;;28.30;90.00;;;;;;4929021;28;20153;-74
2022/06/25 11:59:36;;;;;;;2.80;1.50;;;28.60;90.10;;;;;;4928549;29;20044;-74
2022/06/25 12:02:04;;;;;;;2.03;1.40;;;28.70;89.90;;;;;;4929645;29;20051;-74
2022/06/25 12:04:51;;;;;;;2.00;1.30;;;28.60;90.10;;;;;;4930798;29;20082;-74
2022/06/25 12:07:31;;;;;;;2.08;1.67;;;28.50;88.40;;;;;;4936032;28;20247;-74
2022/06/25 12:10:03;;;;;;;3.22;1.42;;;28.30;89.10;;;;;;4929833;28;20047;-74
2022/06/25 12:12:28;;;;;;;1.38;1.27;;;28.00;89.40;;;;;;4933154;28;20052;-74
2022/06/25 12:14:56;;;;;;;2.20;1.27;;;27.80;89.50;;;;;;4932448;29;20047;-74
2022/06/25 12:17:21;;;;;;;1.33;1.23;;;27.70;90.10;;;;;;4938817;28;20067;-74
2022/06/25 12:19:52;;;;;;;1.20;1.10;;;27.60;90.40;;;;;;4937098;28;20077;-74
2022/06/25 12:22:29;;;;;;;1.38;1.27;;;27.50;90.40;;;;;;4936362;29;20135;-74
2022/06/25 12:24:57;;;;;;;2.42;1.30;;;27.40;90.50;;;;;;4935382;29;20059;-74
2022/06/25 12:27:24;;;;;;;1.45;1.35;;;27.40;91.10;;;;;;4937082;29;20503;-74
2022/06/25 12:29:52;;;;;;;1.58;1.48;;;27.30;91.30;;;;;;4927777;29;20158;-74
2022/06/25 12:32:18;;;;;;;2.03;1.58;;;27.10;90.70;;;;;;4934200;28;20126;-74
2022/06/25 12:34:49;;;;;;;5.72;1.48;;;27.10;91.30;;;;;;4935899;28;20047;-74
2022/06/25 12:37:34;;;;;;;1.92;1.70;;;26.90;91.40;;;;;;4935038;29;20055;-74
2022/06/25 12:40:00;;;;;;;2.45;1.65;;;26.80;91.50;;;;;;4933866;29;20103;-74
2022/06/25 12:42:33;;;;;;;2.25;1.30;;;26.70;92.50;;;;;;4933897;29;20050;-74
2022/06/25 12:44:59;;;;;;;;;;;26.50;92.40;;;;;;4933624;29;20055;-74
2022/06/25 12:47:38;;;;;;;3.33;1.75;;;26.10;93.10;;;;;;4927680;28;19934;-74
2022/06/25 12:50:06;;;;;;;2.65;1.80;;;25.90;92.80;;;;;;4930707;29;20228;-74
2022/06/25 12:52:36;;;;;;;3.38;1.90;;;25.80;93.20;;;;;;4935038;28;20355;-74
2022/06/25 12:55:03;;;;;;;2.03;1.55;;;25.50;93.40;;;;;;4936684;28;21029;-74
2022/06/25 12:57:31;;;;;;;2.10;1.60;;;25.50;94.10;;;;;;4935143;28;20125;-75
2022/06/25 12:59:59;;;;;;;2.55;2.00;;;25.50;94.60;;;;;;4932815;29;20155;-74
2022/06/25 13:02:25;;;;;;;2.05;1.50;;;25.30;94.10;;;;;;4936325;29;20154;-74
2022/06/25 13:04:51;;;;;;;1.80;1.70;;;25.30;94.80;;;;;;4931869;29;20074;-74
2022/06/25 13:07:18;;;;;;;2.10;1.70;;;25.30;95.90;;;;;;4935879;29;20055;-74